Accueil
METAR-TAF:

METAR-TAF

Aéroports :

Farnborough, Angleterre

latitude: 51-17N, longitude: 000-46W, altitude: 65 m

Observation

Le bulletin a été fait il y a 19 minutes, à 11:50 UTC
Vent 3 kt de direction variable
Température 22°C
Humidité 60%
Pression 1006 hPa
Visibilité 10 km ou plus
Nuages épars à une hauteur de 3900 ft

METAR: EGLF 271150Z VRB03KT 9999 SCT039 22/14 Q1006

Heure: 13:09 (12:09 UTC)

Prévision

Le bulletin a été fait il y a 1 heure et 8 minutes, à 11:01 UTC
Prévision valable du 27 à 12 UTC au 27 à 21 UTC
Vent 9 kt de est
Visibilité 10 km ou plus
Nuages épars à une hauteur de 4500 ft
Temporairement
du 27 à 12 UTC au 27 à 21 UTC
Visibilité: 7000 m
averses de pluie
Probabilité 30% :
Temporairement
du 27 à 12 UTC au 27 à 21 UTC
Visibilité: 4000 m
Nuages fragmentés à une hauteur de 1000 ft
fortes averses de pluie

TAF: EGLF 271101Z 2712/2721 10009KT 9999 SCT045 TEMPO 2712/2721 7000 SHRA PROB30 TEMPO 2712/2721 4000 +SHRA BKN010

Observations et prévisions météorologiques de plus de 4000 aéroports (messages METAR et TAF).

Les stations disponibles sont représentées par des disques jaunes et rouges sur la carte.

Passer la souris dessus pour voir le nom de la station.

Cliquer dessus pour voir les observations et prévisions météorologiques.

Pour changer de carte: cliquez sur les boutons verts avec une croix noire pour zoomer, sur le bouton vert avec un tiret pour effectuer un zoom arrière, ou sur les flèches vertes pour les cartes adjacentes.


METAR-TAF: